Flight Track Log - Related Links

Times and Time Zones

All times are in EDT time to prevent confusion due to time zone crossing. See the SWA2854 flight status page for this flight to view local times or setup timezone preferences in your user account.

Time Position Orientation Groundspeed Altitude Reporting Facility
EDT Latitude Longitude Course Direction KTS MPH feet Rate Location/Type
Sat 07:47:40 PM 39.9500 -104.6333 108° East 217 250 7,900  Level Denver TRACON
Sat 07:48:40 PM 39.9833 -104.5833 49° Northeast 277 319 10,000 2,050 Climbing Denver TRACON
Sat 07:49:40 PM 39.9500 -104.4833 113° Southeast 327 376 12,000 2,429 Climbing Denver TRACON
Sat 07:50:46 PM 39.8833 -104.3667 127° Southeast 369 425 15,100 2,829 Climbing Denver TRACON
Sat 07:52:00 PM 39.8158 -104.2183 121° Southeast 389 448 18,600 2,800 Climbing Denver Center
Sat 07:53:00 PM 39.5969 -103.8376 108° East  Level FlightAware Approximate
Sat 07:53:01 PM 39.7506 -104.0942 124° Southeast 415 478 21,400  Level Denver Center
Sat 07:54:03 PM 39.6808 -103.9658 125° Southeast 432 497 24,000 2,146 Climbing Denver Center
Sat 07:55:04 PM 39.6294 -103.8706 125° Southeast 436 502 25,800 2,146 Climbing Denver Center
Sat 07:56:06 PM 39.5658 -103.6981 116° Southeast 441 507 28,400 2,468 Climbing Denver Center
Sat 07:57:08 PM 39.5169 -103.5083 108° East 461 531 30,900 2,074 Climbing Denver Center
Sat 07:58:22 PM 39.4661 -103.3158 109° East 470 541 33,100 1,941 Climbing Denver Center
Sat 07:59:24 PM 39.4233 -103.1572 109° East 471 542 35,300 2,146 Climbing Denver Center
Sat 08:00:25 PM 39.3817 -103.0003 109° East 465 535 37,500 1,854 Climbing Denver Center
Sat 08:01:27 PM 39.3408 -102.8489 109° East 453 521 39,100 1,288 Climbing Denver Center
Sat 08:03:08 PM 39.2703 -102.5861 109° East 451 519 41,000 691 Climbing Kansas City Center
Sat 08:04:12 PM 39.2228 -102.4136 110° East 454 522 41,000  Level Kansas City Center
Sat 08:05:13 PM 39.1819 -102.2664 110° East 455 524 41,000  Level Kansas City Center
Sat 08:06:14 PM 39.1419 -102.1175 109° East 459 528 41,000  Level Kansas City Center
Sat 08:07:16 PM 39.0925 -101.9453 110° East 459 528 41,000  Level Kansas City Center
Sat 08:08:16 PM 39.0503 -101.7986 110° East 458 527 41,000  Level Kansas City Center
Sat 08:09:17 PM 39.0083 -101.6531 110° East 455 524 41,000  Level Kansas City Center
Sat 08:10:18 PM 38.9608 -101.4814 110° East 455 524 41,000  Level Kansas City Center
Sat 08:11:19 PM 38.9144 -101.3403 113° Southeast 451 519 41,000  Level Kansas City Center
Sat 08:12:22 PM 38.8675 -101.1719 110° East 448 516 41,000  Level Kansas City Center
Sat 08:13:23 PM 38.8253 -101.0275 111° Southeast 450 518 41,000  Level Kansas City Center
Sat 08:14:23 PM 38.7844 -100.8808 110° East 454 522 41,000  Level Kansas City Center
Sat 08:15:24 PM 38.7353 -100.7122 110° East 452 520 41,000  Level Kansas City Center
Sat 08:16:25 PM 38.6933 -100.5658 110° East 455 524 41,000  Level Kansas City Center
Sat 08:17:29 PM 38.6525 -100.4250 110° East 445 512 41,000  Level Kansas City Center
Sat 08:18:29 PM 38.6044 -100.2600 110° East 442 509 41,000  Level Kansas City Center
Sat 08:19:29 PM 38.5631 -100.1189 111° Southeast 442 509 41,000  Level Kansas City Center
Sat 08:20:30 PM 38.5150 -99.9544 110° East 441 507 41,000  Level Kansas City Center
Sat 08:21:34 PM 38.4736 -99.8144 111° Southeast 440 506 41,000  Level Kansas City Center
Sat 08:22:34 PM 38.4319 -99.6731 111° Southeast 442 509 41,000  Level Kansas City Center
Sat 08:23:35 PM 38.3850 -99.5192 111° Southeast 443 510 41,000  Level Kansas City Center
Sat 08:24:35 PM 38.3411 -99.3742 111° Southeast 441 507 41,000  Level Kansas City Center
Sat 08:25:37 PM 38.2981 -99.2303 111° Southeast 437 503 41,000  Level Kansas City Center
Sat 08:26:38 PM 38.2553 -99.0875 111° Southeast 433 498 41,000  Level Kansas City Center
Sat 08:27:39 PM 38.2114 -98.9456 111° Southeast 433 498 41,000  Level Kansas City Center
Sat 08:28:42 PM 38.1700 -98.8011 110° East 434 499 41,000  Level Kansas City Center
Sat 08:29:43 PM 38.1253 -98.6594 112° Southeast 432 497 41,000  Level Kansas City Center
Sat 08:30:44 PM 38.0717 -98.4883 112° Southeast 435 501 41,000  Level Kansas City Center
Sat 08:31:46 PM 38.0281 -98.3436 111° Southeast 438 504 41,000  Level Kansas City Center
Sat 08:32:46 PM 37.9836 -98.2017 112° Southeast 437 503 41,000  Level Kansas City Center
Sat 08:33:49 PM 37.9425 -98.0747 112° Southeast 433 498 41,000  Level Kansas City Center
Sat 08:34:49 PM 37.8894 -97.9042 111° Southeast 431 496 41,000  Level Kansas City Center
Sat 08:35:51 PM 37.8444 -97.7592 111° Southeast 434 499 41,000  Level Kansas City Center
Sat 08:36:52 PM 37.7969 -97.6142 112° Southeast 439 505 41,000  Level Kansas City Center
Sat 08:37:53 PM 37.7508 -97.4706 112° Southeast 440 506 41,000  Level Kansas City Center
Sat 08:38:53 PM 37.7036 -97.3250 112° Southeast 440 506 41,000  Level Kansas City Center
Sat 08:39:54 PM 37.6581 -97.1833 112° Southeast 436 502 41,000  Level Kansas City Center
Sat 08:40:58 PM 37.6125 -97.0411 112° Southeast 438 504 41,000  Level Kansas City Center
Sat 08:41:57 PM 37.5650 -96.8994 113° Southeast 439 505 41,000  Level Kansas City Center
Sat 08:42:59 PM 37.5183 -96.7572 112° Southeast 440 506 41,000  Level Kansas City Center
Sat 08:44:01 PM 37.4711 -96.6139 113° Southeast 442 509 41,000  Level Kansas City Center
Sat 08:45:01 PM 37.4269 -96.4700 111° Southeast 442 509 41,000  Level Kansas City Center
Sat 08:46:02 PM 37.3772 -96.3158 112° Southeast 448 516 41,000  Level Kansas City Center
Sat 08:47:03 PM 37.3275 -96.1733 114° Southeast 446 513 41,000  Level Kansas City Center
Sat 08:48:06 PM 37.2794 -96.0275 112° Southeast 449 517 41,000  Level Kansas City Center
Sat 08:49:06 PM 37.2292 -95.8850 114° Southeast 447 514 41,000  Level Kansas City Center
Sat 08:50:07 PM 37.1708 -95.7117 113° Southeast 447 514 41,000  Level Kansas City Center
Sat 08:51:08 PM 37.1222 -95.5697 113° Southeast 444 511 41,000  Level Kansas City Center
Sat 08:52:09 PM 37.0731 -95.4272 113° Southeast 443 510 41,000  Level Kansas City Center
Sat 08:53:13 PM 37.0231 -95.2858 114° Southeast 442 509 41,000  Level Kansas City Center
Sat 08:54:14 PM 36.9725 -95.1428 114° Southeast 444 511 41,000  Level Kansas City Center
Sat 08:55:13 PM 36.9222 -95.0000 114° Southeast 445 512 41,000  Level Kansas City Center
Sat 08:56:13 PM 36.8719 -94.8564 114° Southeast 447 514 41,000  Level Kansas City Center
Sat 08:57:17 PM 36.8206 -94.7144 114° Southeast 446 513 41,000  Level Kansas City Center
Sat 08:58:18 PM 36.7700 -94.5719 114° Southeast 447 514 41,000  Level Kansas City Center
Sat 08:59:19 PM 36.7189 -94.4297 114° Southeast 447 514 41,000  Level Kansas City Center
Sat 09:00:19 PM 36.6686 -94.2869 114° Southeast 447 514 41,000  Level Kansas City Center
Sat 09:01:20 PM 36.6161 -94.1447 115° Southeast 449 517 41,000  Level Kansas City Center
Sat 09:02:20 PM 36.5653 -94.0022 114° Southeast 449 517 41,000  Level Kansas City Center
Sat 09:03:22 PM 36.5131 -93.8606 115° Southeast 450 518 41,000  Level Kansas City Center
Sat 09:04:25 PM 36.4603 -93.7156 114° Southeast 450 518 41,000  Level Kansas City Center
Sat 09:05:26 PM 36.4081 -93.5747 115° Southeast 449 517 41,000  Level Kansas City Center
Sat 09:06:24 PM 36.3544 -93.4258 114° Southeast 444 511 41,000  Level Memphis Center
Sat 09:07:24 PM 36.3017 -93.2822 114° Southeast 449 517 41,000  Level Memphis Center
Sat 09:08:24 PM 36.2486 -93.1389 115° Southeast 444 511 41,000  Level Memphis Center
Sat 09:09:24 PM 36.1972 -93.0061 116° Southeast 443 510 41,000  Level Memphis Center
Sat 09:10:24 PM 36.1461 -92.8603 113° Southeast 442 509 41,000  Level Memphis Center
Sat 09:11:24 PM 36.0925 -92.7200 115° Southeast 447 514 41,000  Level Memphis Center
Sat 09:12:24 PM 36.0389 -92.5775 115° Southeast 447 514 41,000  Level Memphis Center
Sat 09:13:24 PM 35.9869 -92.4400 115° Southeast 447 514 41,000  Level Memphis Center
Sat 09:14:24 PM 35.9331 -92.2978 115° Southeast 447 514 41,000  Level Memphis Center
Sat 09:15:24 PM 35.8789 -92.1556 115° Southeast 447 514 41,000  Level Memphis Center
Sat 09:16:24 PM 35.8244 -92.0161 116° Southeast 447 514 41,000  Level Memphis Center
Sat 09:17:24 PM 35.7700 -91.8742 115° Southeast 447 514 41,000  Level Memphis Center
Sat 09:18:24 PM 35.7153 -91.7325 115° Southeast 447 514 41,000  Level Memphis Center
Sat 09:19:24 PM 35.6606 -91.5911 115° Southeast 447 514 41,000  Level Memphis Center
Sat 09:20:24 PM 35.6056 -91.4525 116° Southeast 447 514 41,000  Level Memphis Center
Sat 09:21:24 PM 35.5503 -91.3139 116° Southeast 447 514 41,000  Level Memphis Center
Sat 09:22:24 PM 35.4950 -91.1731 116° Southeast 453 521 41,000  Level Memphis Center
Sat 09:23:24 PM 35.4500 -91.0247 110° East 453 521 41,000  Level Memphis Center
Sat 09:24:24 PM 35.4194 -90.8742 104° East 453 521 41,000  Level Memphis Center
Sat 09:25:24 PM 35.3844 -90.7111 105° East 448 516 41,000  Level Memphis Center
Sat 09:26:24 PM 35.3514 -90.5633 105° East 453 521 41,000  Level Memphis Center
Sat 09:27:24 PM 35.3181 -90.4156 105° East 453 521 41,000  Level Memphis Center
Sat 09:28:24 PM 35.2889 -90.2681 104° East 453 521 41,000  Level Memphis Center
Sat 09:29:24 PM 35.2575 -90.1206 105° East 448 516 41,000  Level Memphis Center
Sat 09:30:24 PM 35.2236 -89.9758 106° East 448 516 41,000  Level Memphis Center
Sat 09:31:24 PM 35.1919 -89.8286 105° East 448 516 41,000  Level Memphis Center
Sat 09:32:24 PM 35.1619 -89.6942 105° East 448 516 41,000  Level Memphis Center
Sat 09:33:24 PM 35.1278 -89.5472 106° East 448 516 41,000  Level Memphis Center
Sat 09:34:24 PM 35.0933 -89.4003 106° East 448 516 41,000  Level Memphis Center
Sat 09:35:24 PM 35.0586 -89.2561 106° East 448 516 41,000 -500 Level Memphis Center
Sat 09:36:24 PM 35.0197 -89.0969 107° East 448 516 40,000 -950 Descending Memphis Center
Sat 09:37:24 PM 34.9847 -88.9503 106° East 443 510 39,100 -500 Descending Memphis Center
Sat 09:38:24 PM 34.9494 -88.8014 106° East 443 510 39,000 -50 Descending Memphis Center
Sat 09:39:24 PM 34.9142 -88.6553 106° East 450 518 39,000  Level Memphis Center
Sat 09:40:24 PM 34.8786 -88.5067 106° East 450 518 39,000  Level Memphis Center
Sat 09:41:24 PM 34.8497 -88.3858 106° East 445 512 39,000  Level Memphis Center
Sat 09:42:24 PM 34.8158 -88.2347 105° East 445 512 39,000  Level Memphis Center
Sat 09:43:24 PM 34.7733 -88.0639 107° East 469 540 39,000  Level Memphis Center
Sat 09:44:24 PM 34.7375 -87.9336 108° East 462 532 39,000 -50 Level Memphis Center
Sat 09:45:24 PM 34.7053 -87.7828 105° East 457 526 38,900 -1,300 Descending Memphis Center
Sat 09:46:24 PM 34.6686 -87.6375 107° East 452 520 36,400 -2,000 Descending Memphis Center
Sat 09:48:21 PM 34.6036 -87.3422 105° East 438 504 33,000 -1,153 Descending Atlanta Center
Sat 09:49:21 PM 34.5761 -87.1997 103° East 438 504 33,000  Level Atlanta Center
Sat 09:50:21 PM 34.5483 -87.0575 103° East 438 504 33,000  Level Atlanta Center
Sat 09:51:21 PM 34.5206 -86.9128 103° East 438 504 33,000 -100 Level Atlanta Center
Sat 09:52:21 PM 34.4922 -86.7708 104° East 438 504 32,800 -600 Descending Atlanta Center
Sat 09:53:21 PM 34.4642 -86.6264 103° East 438 504 31,800 -1,000 Descending Atlanta Center
Sat 09:54:21 PM 34.4378 -86.4844 103° East 438 504 30,800 -850 Descending Atlanta Center
Sat 09:55:21 PM 34.4072 -86.3350 104° East 438 504 30,100 -850 Descending Atlanta Center
Sat 09:56:21 PM 34.3767 -86.1806 103° East 455 524 29,100 -1,000 Descending Atlanta Center
Sat 09:57:21 PM 34.3458 -86.0264 104° East 461 531 28,100 -1,050 Descending Atlanta Center
Sat 09:58:21 PM 34.3169 -85.8822 104° East 461 531 27,000 -1,000 Descending Atlanta Center
Sat 09:59:21 PM 34.2919 -85.7333 101° East 454 522 26,100 -1,400 Descending Atlanta Center
Sat 10:00:21 PM 34.2625 -85.5897 104° East 454 522 24,200 -2,400 Descending Atlanta Center
Sat 10:01:21 PM 34.2350 -85.4533 104° East 435 501 21,300 -2,850 Descending Atlanta Center
Sat 10:02:21 PM 34.2050 -85.3172 105° East 421 484 18,500 -2,750 Descending Atlanta Center
Sat 10:03:21 PM 34.1792 -85.1914 104° East 391 450 15,800 -2,450 Descending Atlanta Center
Sat 10:04:21 PM 34.1322 -85.0828 118° Southeast 356 410 13,600 -1,400 Descending Atlanta Center
Sat 10:05:21 PM 34.0703 -85.0017 133° Southeast 343 395 13,000 -1,050 Descending Atlanta Center
Sat 10:06:21 PM 34.0186 -84.9361 134° Southeast 313 360 11,500 -1,700 Descending Atlanta Center
Sat 10:07:21 PM 33.9606 -84.8628 134° Southeast 298 343 9,600 -1,250 Descending Atlanta Center
Sat 10:08:21 PM 33.8900 -84.8144 150° Southeast 298 343 9,000 -1,462 Descending Atlanta Center
Sat 10:09:20 PM 33.8167 -84.7500 144° Southeast 284 327 6,700 -1,728 Descending Atlanta TRACON
Sat 10:10:26 PM 33.7500 -84.7000 148° Southeast 257 296 5,400 -905 Descending Atlanta TRACON
Sat 10:11:26 PM 33.7000 -84.6500 140° Southeast 228 262 4,800 -833 Descending Atlanta TRACON
Sat 10:12:14 PM 33.6667 -84.6000 129° Southeast 214 246 3,900 -1,059 Descending Atlanta TRACON
Sat 10:13:08 PM 33.6500 -84.5500 112° Southeast 180 207 3,000 -895 Descending Atlanta TRACON
Sat 10:14:08 PM 33.6500 -84.5167 90° East 120 138 2,200 -667 Descending Atlanta TRACON
Sat 10:15:14 PM 33.6500 -84.4667 90° East 117 135 1,600 -545 Descending Atlanta TRACON
Sat 10:17:00 PM 33.6367 -84.4279 North  Level Estimated
Sat 10:24:00 PM 33.6367 -84.4279 North  Level Estimated

Login

Don't have an account? Register now (free) for customized features, flight alerts, and more!